createdAt,value
2022-10-26T00:01:23.343Z,99.90
2022-10-26T00:03:51.296Z,99.90
2022-10-26T00:06:22.208Z,99.90
2022-10-26T00:08:50.216Z,99.90
2022-10-26T00:11:18.837Z,99.90
2022-10-26T00:13:47.885Z,99.90
2022-10-26T00:16:18.071Z,99.90
2022-10-26T00:18:46.407Z,99.90
2022-10-26T00:21:14.673Z,99.90
2022-10-26T00:23:43.925Z,99.90
2022-10-26T00:26:11.893Z,99.90
2022-10-26T00:28:39.720Z,99.90
2022-10-26T00:31:09.551Z,99.90
2022-10-26T00:33:37.487Z,99.90
2022-10-26T00:36:05.922Z,99.90
2022-10-26T00:38:33.783Z,99.90
2022-10-26T00:41:02.960Z,99.90
2022-10-26T00:43:38.732Z,99.90
2022-10-26T00:46:13.480Z,99.90
2022-10-26T00:48:45.594Z,99.90
2022-10-26T00:51:20.732Z,99.90
2022-10-26T00:53:49.071Z,99.90
2022-10-26T00:56:19.228Z,99.90
2022-10-26T00:58:47.504Z,99.90
2022-10-26T01:01:15.524Z,99.90
2022-10-26T01:03:44.702Z,99.90
2022-10-26T01:06:14.360Z,99.90
2022-10-26T01:08:44.880Z,99.90
2022-10-26T01:11:13.632Z,99.90
2022-10-26T01:13:45.055Z,99.90
2022-10-26T01:16:33.978Z,99.90
2022-10-26T01:19:18.641Z,99.90
2022-10-26T01:21:56.251Z,99.90
2022-10-26T01:24:46.459Z,99.90
2022-10-26T01:27:29.308Z,99.90
2022-10-26T01:30:25.068Z,99.90
2022-10-26T01:33:10.192Z,99.90
2022-10-26T01:35:44.474Z,99.90
2022-10-26T01:38:19.535Z,99.90
2022-10-26T01:40:54.451Z,99.90
2022-10-26T01:43:23.752Z,99.90
2022-10-26T01:45:54.996Z,99.90
2022-10-26T01:48:25.683Z,99.90
2022-10-26T01:50:55.610Z,99.90
2022-10-26T01:53:23.421Z,99.90
2022-10-26T01:55:52.878Z,99.90
2022-10-26T01:58:57.502Z,99.90
2022-10-26T02:01:52.045Z,99.90
2022-10-26T02:04:33.874Z,99.90
2022-10-26T02:07:04.826Z,99.90
2022-10-26T02:09:42.606Z,99.90
2022-10-26T02:12:18.998Z,99.90
2022-10-26T02:14:50.968Z,99.90
2022-10-26T02:17:28.826Z,99.90
2022-10-26T02:20:00.662Z,99.90
2022-10-26T02:22:32.333Z,99.90
2022-10-26T02:25:02.117Z,99.90
2022-10-26T02:27:33.747Z,99.90
2022-10-26T02:30:03.786Z,99.90
2022-10-26T02:32:36.530Z,99.90
2022-10-26T02:35:06.237Z,99.90
2022-10-26T02:37:36.504Z,99.90
2022-10-26T02:40:08.466Z,99.90
2022-10-26T02:42:37.854Z,99.90
2022-10-26T02:45:10.979Z,99.90
2022-10-26T02:47:40.320Z,99.90
2022-10-26T02:50:08.578Z,99.90
2022-10-26T02:52:45.564Z,99.90
2022-10-26T02:55:19.468Z,99.90
2022-10-26T02:57:52.256Z,99.90
2022-10-26T03:00:20.696Z,99.90
2022-10-26T03:02:55.078Z,99.90
2022-10-26T03:05:25.837Z,99.90
2022-10-26T03:07:53.696Z,99.90
2022-10-26T03:10:22.001Z,99.90
2022-10-26T03:12:50.184Z,99.90
2022-10-26T03:15:18.323Z,99.90
2022-10-26T03:17:46.326Z,99.90
2022-10-26T03:20:15.847Z,99.90
2022-10-26T03:22:43.681Z,99.90
2022-10-26T03:25:11.538Z,99.90
2022-10-26T03:27:39.366Z,99.90
2022-10-26T03:30:08.440Z,99.90
2022-10-26T03:32:36.362Z,99.90
2022-10-26T03:35:04.481Z,99.90
2022-10-26T03:37:33.610Z,99.90
2022-10-26T03:40:01.450Z,99.90
2022-10-26T03:42:29.372Z,99.90
2022-10-26T03:44:57.200Z,99.90
2022-10-26T03:47:25.041Z,99.90
2022-10-26T03:49:52.938Z,99.90
2022-10-26T03:52:20.755Z,99.90
2022-10-26T03:54:50.070Z,99.90
2022-10-26T03:57:18.334Z,99.90
2022-10-26T03:59:46.124Z,99.90
2022-10-26T04:02:15.164Z,99.90
2022-10-26T04:04:43.018Z,99.90
2022-10-26T04:07:11.643Z,99.90
2022-10-26T04:09:39.495Z,99.90
2022-10-26T04:12:09.041Z,99.90
2022-10-26T04:14:36.854Z,99.90
2022-10-26T04:17:04.710Z,99.90
2022-10-26T04:19:32.527Z,99.90
2022-10-26T04:22:00.341Z,99.90
2022-10-26T04:24:28.227Z,99.90
2022-10-26T04:26:56.092Z,99.90
2022-10-26T04:29:25.410Z,99.90
2022-10-26T04:31:54.335Z,99.90
2022-10-26T04:34:22.188Z,99.90
2022-10-26T04:36:49.998Z,99.90
2022-10-26T04:39:17.850Z,99.90
2022-10-26T04:41:45.678Z,99.90
2022-10-26T04:44:13.472Z,99.90
2022-10-26T04:46:42.658Z,99.90
2022-10-26T04:49:10.623Z,99.90
2022-10-26T04:51:38.456Z,99.90
2022-10-26T04:54:06.353Z,99.90
2022-10-26T04:56:35.047Z,99.90
2022-10-26T04:59:03.203Z,99.90
2022-10-26T05:01:32.263Z,99.90
2022-10-26T05:04:01.581Z,99.90
2022-10-26T05:06:30.130Z,99.90
2022-10-26T05:08:57.935Z,99.90
2022-10-26T05:11:25.807Z,99.90
2022-10-26T05:13:53.612Z,99.90
2022-10-26T05:16:21.460Z,99.90
2022-10-26T05:18:50.310Z,99.90
2022-10-26T05:21:20.227Z,99.90
2022-10-26T05:23:52.451Z,99.90
2022-10-26T05:26:20.595Z,99.90
2022-10-26T05:28:48.603Z,99.90
2022-10-26T05:31:16.657Z,99.90
2022-10-26T05:33:44.562Z,99.90
2022-10-26T05:36:12.374Z,99.90
2022-10-26T05:38:41.579Z,99.90
2022-10-26T05:41:09.487Z,99.90
2022-10-26T05:43:37.327Z,99.90
2022-10-26T05:46:05.393Z,99.90
2022-10-26T05:48:33.243Z,99.90
2022-10-26T05:51:01.683Z,99.90
2022-10-26T05:53:29.619Z,99.90
2022-10-26T05:55:59.841Z,99.90
2022-10-26T05:58:28.385Z,99.90
2022-10-26T06:01:12.004Z,99.90
2022-10-26T06:03:54.128Z,99.90
2022-10-26T06:06:23.782Z,99.90
2022-10-26T06:08:52.129Z,99.90
2022-10-26T06:11:22.141Z,99.90
2022-10-26T06:13:51.408Z,99.90
2022-10-26T06:16:33.130Z,99.90
2022-10-26T06:19:10.770Z,99.90
2022-10-26T06:21:51.794Z,99.90
2022-10-26T06:24:25.708Z,99.90
2022-10-26T06:27:03.552Z,99.90
2022-10-26T06:29:42.328Z,99.90
2022-10-26T06:32:11.063Z,99.90
2022-10-26T06:34:45.167Z,99.90
2022-10-26T06:37:14.088Z,99.90
2022-10-26T06:39:48.767Z,99.90
2022-10-26T06:42:21.416Z,99.90
2022-10-26T06:44:49.943Z,99.90
2022-10-26T06:47:24.038Z,99.90
2022-10-26T06:50:00.280Z,99.90
2022-10-26T06:52:34.727Z,99.90
2022-10-26T06:55:03.161Z,99.90
2022-10-26T06:57:36.054Z,99.90
2022-10-26T07:00:08.279Z,99.90
2022-10-26T07:02:36.313Z,99.90
2022-10-26T07:05:06.459Z,99.90
2022-10-26T07:07:36.649Z,99.90
2022-10-26T07:10:07.062Z,99.90
2022-10-26T07:12:36.302Z,99.90
2022-10-26T07:15:04.935Z,99.90
2022-10-26T07:17:33.055Z,99.90
2022-10-26T07:20:00.924Z,99.90
2022-10-26T07:22:28.762Z,99.90
2022-10-26T07:24:59.237Z,99.90
2022-10-26T07:27:30.534Z,99.90
2022-10-26T07:29:59.782Z,99.90
2022-10-26T07:32:27.770Z,99.90
2022-10-26T07:34:55.627Z,99.90
2022-10-26T07:37:23.510Z,99.90
2022-10-26T07:39:51.396Z,99.90
2022-10-26T07:42:19.311Z,99.90
2022-10-26T07:44:47.124Z,99.90
2022-10-26T07:47:16.378Z,99.90
2022-10-26T07:49:44.271Z,99.90
2022-10-26T07:52:12.583Z,99.90
2022-10-26T07:54:40.434Z,99.90
2022-10-26T07:57:08.303Z,99.90
2022-10-26T07:59:36.445Z,99.90
2022-10-26T08:02:04.401Z,99.90
2022-10-26T08:04:33.658Z,99.90
2022-10-26T08:07:01.520Z,99.90
2022-10-26T08:09:29.447Z,99.90
2022-10-26T08:11:57.305Z,99.90
2022-10-26T08:14:25.252Z,99.90
2022-10-26T08:16:53.113Z,99.90
2022-10-26T08:19:21.286Z,99.90
2022-10-26T08:21:50.471Z,99.90
2022-10-26T08:24:18.346Z,99.90
2022-10-26T08:26:46.940Z,99.90
2022-10-26T08:29:14.783Z,99.90
2022-10-26T08:31:43.045Z,99.90
2022-10-26T08:34:10.934Z,99.90
2022-10-26T08:36:38.792Z,99.90
2022-10-26T08:39:08.070Z,99.90
2022-10-26T08:41:38.704Z,99.90
2022-10-26T08:44:19.269Z,99.90
2022-10-26T08:46:51.263Z,99.90
2022-10-26T08:49:24.332Z,99.90
2022-10-26T08:51:55.964Z,99.90
2022-10-26T08:54:34.961Z,99.90
2022-10-26T08:57:11.454Z,99.90
2022-10-26T08:59:43.638Z,99.90
2022-10-26T09:02:13.913Z,99.90
2022-10-26T09:04:42.104Z,99.90
2022-10-26T09:07:19.806Z,99.90
2022-10-26T09:10:00.624Z,99.90
2022-10-26T09:12:37.833Z,99.90
2022-10-26T09:15:25.528Z,99.90
2022-10-26T09:18:05.632Z,99.90
2022-10-26T09:20:57.992Z,99.90
2022-10-26T09:23:37.868Z,99.90
2022-10-26T09:26:14.351Z,99.90
2022-10-26T09:28:45.716Z,99.90
2022-10-26T09:31:17.735Z,99.90
2022-10-26T09:33:45.591Z,99.90
2022-10-26T09:36:20.366Z,99.90
2022-10-26T09:38:54.447Z,99.90
2022-10-26T09:41:31.002Z,99.90
2022-10-26T09:44:06.509Z,99.90
2022-10-26T09:46:41.686Z,99.90
2022-10-26T09:49:13.731Z,99.90
2022-10-26T09:51:42.933Z,99.90
2022-10-26T09:54:16.051Z,99.90
2022-10-26T09:56:47.530Z,99.90
2022-10-26T09:59:16.514Z,99.90
2022-10-26T10:01:44.609Z,99.90
2022-10-26T10:04:21.051Z,99.90
2022-10-26T10:06:50.571Z,99.90
2022-10-26T10:09:20.882Z,99.90
2022-10-26T10:11:56.462Z,99.90
2022-10-26T10:14:25.984Z,99.90
2022-10-26T10:16:59.044Z,99.90
2022-10-26T10:19:28.723Z,99.90
2022-10-26T10:21:59.555Z,99.90
2022-10-26T10:24:30.209Z,99.90
2022-10-26T10:27:01.960Z,99.10
2022-10-26T10:29:31.422Z,97.30
2022-10-26T10:32:00.984Z,95.80
2022-10-26T10:34:30.816Z,95.70
2022-10-26T10:37:00.254Z,96.30
2022-10-26T10:39:38.350Z,97.30
2022-10-26T10:42:17.765Z,97.60
2022-10-26T10:44:47.268Z,97.60
2022-10-26T10:47:23.999Z,97.10
2022-10-26T10:49:58.514Z,96.70
2022-10-26T10:52:29.386Z,95.30
2022-10-26T10:55:11.850Z,96.30
2022-10-26T10:57:54.053Z,96.40
2022-10-26T11:00:22.631Z,97.00
2022-10-26T11:03:05.752Z,98.00
2022-10-26T11:05:49.531Z,96.60
2022-10-26T11:08:22.682Z,94.40
2022-10-26T11:10:53.612Z,92.90
2022-10-26T11:13:26.095Z,91.20
2022-10-26T11:15:59.889Z,91.50
2022-10-26T11:18:32.581Z,90.70
2022-10-26T11:21:05.371Z,91.40
2022-10-26T11:23:39.864Z,92.40
2022-10-26T11:26:13.706Z,93.70
2022-10-26T11:28:50.653Z,94.70
2022-10-26T11:31:24.872Z,95.50
2022-10-26T11:34:10.659Z,95.40
2022-10-26T11:36:42.654Z,96.00
2022-10-26T11:39:20.382Z,96.90
2022-10-26T11:41:54.261Z,97.10
2022-10-26T11:44:31.834Z,97.50
2022-10-26T11:47:04.747Z,97.70
2022-10-26T11:49:39.198Z,98.40
2022-10-26T11:52:17.615Z,99.60
2022-10-26T11:54:49.576Z,99.50
2022-10-26T11:57:18.136Z,99.90
2022-10-26T11:59:51.372Z,99.90
2022-10-26T12:02:22.241Z,99.90
2022-10-26T12:04:54.335Z,99.90
2022-10-26T12:07:27.546Z,99.90
2022-10-26T12:09:57.114Z,99.90
2022-10-26T12:12:35.113Z,99.90
2022-10-26T12:15:17.708Z,99.90
2022-10-26T12:17:52.465Z,99.90
2022-10-26T12:20:50.377Z,99.90
2022-10-26T12:23:28.138Z,99.90
2022-10-26T12:26:48.795Z,99.90
2022-10-26T12:29:45.837Z,99.90
2022-10-26T12:32:52.679Z,99.90
2022-10-26T12:35:39.991Z,99.90
2022-10-26T12:38:47.542Z,99.90
2022-10-26T12:41:26.084Z,99.90
2022-10-26T12:44:07.550Z,99.90
2022-10-26T12:46:41.940Z,99.90
2022-10-26T12:49:40.105Z,99.90
2022-10-26T12:52:28.122Z,99.90
2022-10-26T12:55:22.601Z,99.90
2022-10-26T12:58:03.427Z,99.90
2022-10-26T13:00:32.406Z,99.90
2022-10-26T13:03:13.495Z,99.90
2022-10-26T13:06:01.000Z,99.90
2022-10-26T13:08:40.743Z,99.90
2022-10-26T13:11:16.493Z,99.90
2022-10-26T13:13:45.067Z,99.90
2022-10-26T13:16:14.298Z,99.90
2022-10-26T13:18:48.419Z,99.90
2022-10-26T13:21:18.143Z,99.90
2022-10-26T13:23:49.363Z,99.90
2022-10-26T13:26:19.107Z,99.90
2022-10-26T13:28:52.339Z,99.90
2022-10-26T13:31:56.501Z,99.90
2022-10-26T13:34:26.309Z,99.90
2022-10-26T13:37:08.743Z,99.90
2022-10-26T13:39:42.010Z,99.90
2022-10-26T13:42:15.400Z,99.90
2022-10-26T13:44:48.957Z,99.90
2022-10-26T13:47:23.809Z,99.90
2022-10-26T13:49:55.202Z,99.90
2022-10-26T13:52:29.956Z,99.90
2022-10-26T13:55:02.588Z,99.90
2022-10-26T13:57:36.608Z,99.90
2022-10-26T14:00:10.657Z,99.90
2022-10-26T14:02:43.897Z,99.90
2022-10-26T14:05:14.416Z,99.90
2022-10-26T14:07:46.697Z,99.90
2022-10-26T14:10:27.830Z,99.90
2022-10-26T14:12:56.052Z,99.90
2022-10-26T14:15:26.635Z,99.90
2022-10-26T14:17:56.209Z,99.90
2022-10-26T14:20:26.777Z,99.90
2022-10-26T14:22:54.654Z,99.90
2022-10-26T14:25:36.109Z,99.90
2022-10-26T14:28:25.300Z,99.90
2022-10-26T14:30:53.428Z,99.90
2022-10-26T14:33:27.296Z,99.90
2022-10-26T14:35:55.704Z,99.90
2022-10-26T14:38:27.451Z,99.90
2022-10-26T14:40:59.085Z,99.90
2022-10-26T14:43:27.798Z,99.90
2022-10-26T14:45:57.243Z,99.90
2022-10-26T14:48:29.921Z,99.90
2022-10-26T14:51:02.081Z,99.90
2022-10-26T14:53:35.402Z,99.90
2022-10-26T14:56:06.525Z,99.90
2022-10-26T14:58:35.422Z,99.90
2022-10-26T15:01:33.211Z,99.90
2022-10-26T15:04:05.003Z,99.90
2022-10-26T15:06:42.870Z,99.90
2022-10-26T15:09:41.698Z,99.90
2022-10-26T15:12:21.049Z,99.90
2022-10-26T15:14:50.117Z,99.90
2022-10-26T15:17:23.961Z,99.90
2022-10-26T15:19:53.631Z,99.90
2022-10-26T15:22:31.001Z,99.90
2022-10-26T15:25:03.434Z,99.90
2022-10-26T15:27:32.851Z,99.90
2022-10-26T15:30:19.443Z,99.90
2022-10-26T15:32:47.936Z,99.90
2022-10-26T15:35:33.952Z,99.90
2022-10-26T15:38:02.020Z,99.90
2022-10-26T15:40:31.910Z,99.90
2022-10-26T15:43:02.185Z,99.90
2022-10-26T15:45:32.981Z,99.90
2022-10-26T15:48:16.628Z,99.90
2022-10-26T15:50:44.501Z,99.90
2022-10-26T15:53:18.831Z,99.90
2022-10-26T15:55:46.749Z,99.90
2022-10-26T15:58:16.558Z,99.90
2022-10-26T16:00:44.452Z,99.90
2022-10-26T16:03:16.261Z,99.90
2022-10-26T16:05:44.246Z,99.90
2022-10-26T16:08:17.768Z,99.90
2022-10-26T16:10:46.965Z,99.90
2022-10-26T16:13:16.622Z,99.90
2022-10-26T16:15:45.083Z,99.90
2022-10-26T16:18:13.067Z,99.90
2022-10-26T16:20:41.579Z,99.90
2022-10-26T16:23:09.487Z,99.90
2022-10-26T16:25:43.076Z,99.90
2022-10-26T16:28:12.806Z,99.90
2022-10-26T16:30:42.085Z,99.90
2022-10-26T16:33:09.924Z,99.90
2022-10-26T16:35:37.802Z,99.90
2022-10-26T16:38:05.661Z,99.90
2022-10-26T16:40:33.520Z,99.90
2022-10-26T16:43:01.511Z,99.90
2022-10-26T16:45:29.373Z,99.90
2022-10-26T16:47:58.582Z,99.90
2022-10-26T16:50:26.451Z,99.90
2022-10-26T16:52:54.337Z,99.90
2022-10-26T16:55:24.442Z,99.90
2022-10-26T16:57:52.631Z,99.90
2022-10-26T17:00:20.766Z,99.90
2022-10-26T17:02:48.717Z,99.90
2022-10-26T17:05:18.127Z,99.90
2022-10-26T17:07:48.129Z,99.90
2022-10-26T17:10:16.355Z,99.90
2022-10-26T17:12:44.201Z,99.90
2022-10-26T17:15:15.900Z,99.90
2022-10-26T17:17:46.875Z,99.90
2022-10-26T17:20:14.750Z,99.90
2022-10-26T17:22:43.946Z,99.90
2022-10-26T17:25:11.807Z,99.90
2022-10-26T17:27:43.334Z,99.90
2022-10-26T17:30:13.958Z,99.90
2022-10-26T17:32:41.813Z,99.90
2022-10-26T17:35:09.982Z,99.90
2022-10-26T17:37:40.000Z,99.90
2022-10-26T17:40:10.330Z,99.90
2022-10-26T17:42:38.255Z,99.90
2022-10-26T17:45:06.812Z,99.90
2022-10-26T17:47:34.939Z,99.90
2022-10-26T17:50:04.227Z,99.90
2022-10-26T17:52:32.269Z,99.90
2022-10-26T17:55:01.915Z,99.90
2022-10-26T17:57:33.386Z,99.90
2022-10-26T18:00:01.232Z,99.90
2022-10-26T18:02:29.896Z,99.90
2022-10-26T18:04:57.922Z,99.90
2022-10-26T18:07:25.923Z,99.90
2022-10-26T18:09:53.731Z,99.90
2022-10-26T18:12:22.122Z,99.90
2022-10-26T18:14:51.346Z,99.90
2022-10-26T18:17:19.191Z,99.90
2022-10-26T18:19:47.109Z,99.90
2022-10-26T18:22:15.026Z,99.90
2022-10-26T18:24:42.908Z,99.90
2022-10-26T18:27:10.729Z,99.90
2022-10-26T18:29:39.824Z,99.90
2022-10-26T18:32:09.281Z,99.90
2022-10-26T18:34:37.134Z,99.90
2022-10-26T18:37:04.984Z,99.90
2022-10-26T18:39:32.821Z,99.90
2022-10-26T18:42:00.703Z,99.90
2022-10-26T18:44:28.602Z,99.90
2022-10-26T18:46:56.464Z,99.90
2022-10-26T18:49:26.618Z,99.90
2022-10-26T18:51:54.473Z,99.90
2022-10-26T18:54:22.883Z,99.90
2022-10-26T18:56:50.730Z,99.90
2022-10-26T18:59:18.602Z,99.90
2022-10-26T19:01:47.110Z,99.90
2022-10-26T19:04:15.556Z,99.90
2022-10-26T19:06:47.672Z,99.90
2022-10-26T19:09:16.671Z,99.90
2022-10-26T19:11:44.977Z,99.90
2022-10-26T19:14:13.711Z,99.90
2022-10-26T19:16:46.787Z,99.90
2022-10-26T19:19:16.041Z,99.90
2022-10-26T19:21:45.910Z,99.90
2022-10-26T19:24:16.002Z,99.90
2022-10-26T19:26:44.465Z,99.90
2022-10-26T19:29:14.858Z,99.90
2022-10-26T19:31:44.134Z,99.90
2022-10-26T19:34:13.424Z,99.90
2022-10-26T19:36:44.838Z,99.90
2022-10-26T19:39:15.331Z,99.90
2022-10-26T19:41:43.550Z,99.90
2022-10-26T19:44:12.391Z,99.90
2022-10-26T19:46:40.606Z,99.90
2022-10-26T19:49:08.753Z,99.90
2022-10-26T19:51:36.725Z,99.90
2022-10-26T19:54:06.696Z,99.90
2022-10-26T19:56:37.188Z,99.90
2022-10-26T19:59:05.750Z,99.90
2022-10-26T20:01:34.043Z,99.90
2022-10-26T20:04:02.734Z,99.90
2022-10-26T20:06:31.102Z,99.90
2022-10-26T20:08:59.759Z,99.90
2022-10-26T20:11:27.689Z,99.90
2022-10-26T20:13:56.913Z,99.90
2022-10-26T20:16:25.421Z,99.90
2022-10-26T20:18:53.266Z,99.90
2022-10-26T20:21:21.548Z,99.90
2022-10-26T20:23:49.445Z,99.90
2022-10-26T20:26:20.139Z,99.90
2022-10-26T20:28:50.829Z,99.90
2022-10-26T20:31:20.444Z,99.90
2022-10-26T20:33:51.936Z,99.90
2022-10-26T20:36:20.037Z,99.90
2022-10-26T20:38:48.372Z,99.90
2022-10-26T20:41:16.974Z,99.90
2022-10-26T20:43:45.259Z,99.90
2022-10-26T20:46:23.194Z,99.90
2022-10-26T20:48:52.344Z,99.90
2022-10-26T20:51:25.329Z,99.90
2022-10-26T20:54:00.701Z,99.90
2022-10-26T20:56:28.994Z,99.90
2022-10-26T20:59:01.770Z,99.90
2022-10-26T21:01:32.625Z,99.90
2022-10-26T21:04:02.516Z,99.90
2022-10-26T21:06:32.146Z,99.90
2022-10-26T21:09:00.001Z,99.90
2022-10-26T21:11:27.871Z,99.90
2022-10-26T21:13:55.806Z,99.90
2022-10-26T21:16:23.668Z,99.90
2022-10-26T21:18:52.942Z,99.90
2022-10-26T21:21:20.851Z,99.90
2022-10-26T21:23:48.780Z,99.90
2022-10-26T21:26:16.619Z,99.90
2022-10-26T21:28:46.652Z,99.90
2022-10-26T21:31:16.356Z,99.90
2022-10-26T21:33:46.307Z,99.90
2022-10-26T21:36:16.514Z,99.90
2022-10-26T21:38:47.659Z,99.90
2022-10-26T21:41:17.559Z,99.90
2022-10-26T21:43:47.200Z,99.90
2022-10-26T21:46:16.054Z,99.90
2022-10-26T21:48:44.432Z,99.90
2022-10-26T21:51:15.833Z,99.90
2022-10-26T21:53:43.997Z,99.90
2022-10-26T21:56:14.078Z,99.90
2022-10-26T21:58:42.048Z,99.90
2022-10-26T22:01:11.986Z,99.90
2022-10-26T22:03:40.630Z,99.90
2022-10-26T22:06:10.213Z,99.90
2022-10-26T22:08:39.821Z,99.90
2022-10-26T22:11:10.486Z,99.90
2022-10-26T22:13:39.859Z,99.90
2022-10-26T22:16:10.268Z,99.90
2022-10-26T22:18:38.932Z,99.90
2022-10-26T22:21:07.581Z,99.90
2022-10-26T22:23:36.515Z,99.90
2022-10-26T22:26:06.996Z,99.90
2022-10-26T22:28:39.959Z,99.90
2022-10-26T22:31:12.791Z,99.90
2022-10-26T22:33:40.733Z,99.90
2022-10-26T22:36:10.516Z,99.90
2022-10-26T22:38:38.711Z,99.90
2022-10-26T22:41:08.725Z,99.90
2022-10-26T22:43:36.689Z,99.90
2022-10-26T22:46:06.699Z,99.90
2022-10-26T22:48:35.914Z,99.90
2022-10-26T22:51:06.662Z,99.90
2022-10-26T22:53:34.548Z,99.90
2022-10-26T22:56:02.485Z,99.90
2022-10-26T22:58:31.932Z,99.90
2022-10-26T23:01:04.562Z,99.90
2022-10-26T23:03:32.539Z,99.90
2022-10-26T23:06:00.663Z,99.90
2022-10-26T23:08:29.056Z,99.90
2022-10-26T23:10:59.938Z,99.90
2022-10-26T23:13:28.507Z,99.90
2022-10-26T23:16:04.656Z,99.90
2022-10-26T23:18:32.523Z,99.90
2022-10-26T23:21:00.682Z,99.90
2022-10-26T23:23:28.738Z,99.90
2022-10-26T23:26:01.134Z,99.90
2022-10-26T23:28:29.014Z,99.90
2022-10-26T23:30:58.412Z,99.90
2022-10-26T23:33:26.437Z,99.90
2022-10-26T23:35:54.532Z,99.90
2022-10-26T23:38:22.363Z,99.90
2022-10-26T23:40:51.608Z,99.90
2022-10-26T23:43:19.447Z,99.90
2022-10-26T23:45:47.646Z,99.90
2022-10-26T23:48:19.185Z,99.90
2022-10-26T23:50:49.002Z,99.90
2022-10-26T23:53:18.252Z,99.90
2022-10-26T23:55:47.057Z,99.90
2022-10-26T23:58:15.900Z,99.90
